createdAt,value
2017-08-01T00:02:21.461Z,20.20
2017-08-01T00:04:49.002Z,20.30
2017-08-01T00:07:16.555Z,20.30
2017-08-01T00:09:44.115Z,20.30
2017-08-01T00:12:12.419Z,20.20
2017-08-01T00:14:39.991Z,20.20
2017-08-01T00:17:07.534Z,20.00
2017-08-01T00:19:35.075Z,20.00
2017-08-01T00:22:03.397Z,19.70
2017-08-01T00:24:30.938Z,19.70
2017-08-01T00:26:58.502Z,19.60
2017-08-01T00:29:26.043Z,19.70
2017-08-01T00:31:53.573Z,19.70
2017-08-01T00:34:21.145Z,19.80
2017-08-01T00:36:48.711Z,19.70
2017-08-01T00:39:16.302Z,19.60
2017-08-01T00:41:43.843Z,19.50
2017-08-01T00:44:11.379Z,19.50
2017-08-01T00:46:38.952Z,19.50
2017-08-01T00:49:06.478Z,19.50
2017-08-01T00:51:34.064Z,19.50
2017-08-01T00:54:01.616Z,19.40
2017-08-01T00:56:29.169Z,19.40
2017-08-01T00:58:56.727Z,19.30
2017-08-01T01:01:24.266Z,19.30
2017-08-01T01:03:51.849Z,19.30
2017-08-01T01:06:19.382Z,19.20
2017-08-01T01:08:46.922Z,19.20
2017-08-01T01:11:15.243Z,19.20
2017-08-01T01:13:42.778Z,19.10
2017-08-01T01:16:10.351Z,19.20
2017-08-01T01:18:37.911Z,19.20
2017-08-01T01:21:05.455Z,19.30
2017-08-01T01:23:33.782Z,19.10
2017-08-01T01:26:01.338Z,19.10
2017-08-01T01:28:28.917Z,19.10
2017-08-01T01:30:56.450Z,19.10
2017-08-01T01:33:23.995Z,19.10
2017-08-01T01:35:51.593Z,19.10
2017-08-01T01:38:19.128Z,19.10
2017-08-01T01:40:46.710Z,19.00
2017-08-01T01:43:14.245Z,19.10
2017-08-01T01:45:41.805Z,19.10
2017-08-01T01:48:09.379Z,19.10
2017-08-01T01:50:36.944Z,19.20
2017-08-01T01:53:04.548Z,19.20
2017-08-01T01:55:32.086Z,19.20
2017-08-01T01:57:59.644Z,19.30
2017-08-01T02:00:27.211Z,19.30
2017-08-01T02:02:54.738Z,19.30
2017-08-01T02:05:22.331Z,19.30
2017-08-01T02:07:49.885Z,19.40
2017-08-01T02:10:17.447Z,19.40
2017-08-01T02:12:45.013Z,19.30
2017-08-01T02:15:12.563Z,19.30
2017-08-01T02:17:40.156Z,19.30
2017-08-01T02:20:07.697Z,19.30
2017-08-01T02:22:35.238Z,19.20
2017-08-01T02:25:02.809Z,19.10
2017-08-01T02:27:30.359Z,19.10
2017-08-01T02:29:57.934Z,19.00
2017-08-01T02:32:25.485Z,18.80
2017-08-01T02:34:53.074Z,18.70
2017-08-01T02:37:20.685Z,18.60
2017-08-01T02:39:49.049Z,18.50
2017-08-01T02:42:16.623Z,18.50
2017-08-01T02:44:45.781Z,18.40
2017-08-01T02:47:13.361Z,18.40
2017-08-01T02:49:40.912Z,18.40
2017-08-01T02:52:08.513Z,18.40
2017-08-01T02:54:36.852Z,18.10
2017-08-01T02:57:04.409Z,18.10
2017-08-01T02:59:31.987Z,18.10
2017-08-01T03:01:59.559Z,18.00
2017-08-01T03:04:27.143Z,18.00
2017-08-01T03:06:55.524Z,17.90
2017-08-01T03:09:23.865Z,17.90
2017-08-01T03:11:51.442Z,17.90
2017-08-01T03:14:19.062Z,17.90
2017-08-01T03:16:46.620Z,18.00
2017-08-01T03:19:14.200Z,18.00
2017-08-01T03:21:41.806Z,18.00
2017-08-01T03:24:09.375Z,18.10
2017-08-01T03:26:37.753Z,17.90
2017-08-01T03:29:06.151Z,17.80
2017-08-01T03:31:33.725Z,17.80
2017-08-01T03:34:01.303Z,17.80
2017-08-01T03:36:28.908Z,17.90
2017-08-01T03:38:56.487Z,17.90
2017-08-01T03:41:24.806Z,18.00
2017-08-01T03:43:52.400Z,18.00
2017-08-01T03:46:19.958Z,18.00
2017-08-01T03:48:47.519Z,18.00
2017-08-01T03:51:15.138Z,18.00
2017-08-01T03:53:42.718Z,18.00
2017-08-01T03:56:10.307Z,18.10
2017-08-01T03:58:37.885Z,18.10
2017-08-01T04:01:05.470Z,18.20
2017-08-01T04:03:33.796Z,18.20
2017-08-01T04:06:01.401Z,18.20
2017-08-01T04:08:28.984Z,18.20
2017-08-01T04:10:56.554Z,18.20
2017-08-01T04:13:24.155Z,18.30
2017-08-01T04:15:51.732Z,18.30
2017-08-01T04:18:19.286Z,18.30
2017-08-01T04:20:47.501Z,18.40
2017-08-01T04:23:15.849Z,18.50
2017-08-01T04:25:43.423Z,18.40
2017-08-01T04:28:11.013Z,18.50
2017-08-01T04:30:39.343Z,18.60
2017-08-01T04:33:06.929Z,18.60
2017-08-01T04:35:34.536Z,18.60
2017-08-01T04:38:02.128Z,18.60
2017-08-01T04:40:29.686Z,18.60
2017-08-01T04:42:57.279Z,18.60
2017-08-01T04:45:24.849Z,18.60
2017-08-01T04:47:52.419Z,18.60
2017-08-01T04:50:20.810Z,18.60
2017-08-01T04:52:49.146Z,18.60
2017-08-01T04:55:16.697Z,18.60
2017-08-01T04:57:44.317Z,18.60
2017-08-01T05:00:11.891Z,18.70
2017-08-01T05:02:39.460Z,18.80
2017-08-01T05:05:07.107Z,18.90
2017-08-01T05:07:34.691Z,19.00
2017-08-01T05:10:02.260Z,19.20
2017-08-01T05:12:29.866Z,19.30
2017-08-01T05:14:57.436Z,19.40
2017-08-01T05:17:25.773Z,19.60
2017-08-01T05:19:53.356Z,19.60
2017-08-01T05:22:20.946Z,19.70
2017-08-01T05:24:49.297Z,19.90
2017-08-01T05:27:16.885Z,19.90
2017-08-01T05:29:45.330Z,20.00
2017-08-01T05:32:12.925Z,20.00
2017-08-01T05:34:40.517Z,20.00
2017-08-01T05:37:08.087Z,20.00
2017-08-01T05:39:35.644Z,20.00
2017-08-01T05:42:03.254Z,20.00
2017-08-01T05:44:30.848Z,20.10
2017-08-01T05:46:59.186Z,20.20
2017-08-01T05:49:26.804Z,20.20
2017-08-01T05:51:54.379Z,20.30
2017-08-01T05:54:21.941Z,20.30
2017-08-01T05:56:49.547Z,20.40
2017-08-01T05:59:17.138Z,20.40
2017-08-01T06:01:45.505Z,20.70
2017-08-01T06:04:13.128Z,20.70
2017-08-01T06:06:40.720Z,21.00
2017-08-01T06:09:08.310Z,21.20
2017-08-01T06:11:36.693Z,21.50
2017-08-01T06:14:05.050Z,21.50
2017-08-01T06:19:52.437Z,21.90
2017-08-01T06:22:20.259Z,21.90
2017-08-01T06:24:47.850Z,22.20
2017-08-01T06:27:16.187Z,22.50
2017-08-01T06:29:43.806Z,22.50
2017-08-01T06:32:11.396Z,22.60
2017-08-01T06:34:38.953Z,22.60
2017-08-01T06:37:06.584Z,22.60
2017-08-01T06:39:34.924Z,22.60
2017-08-01T06:42:02.503Z,22.60
2017-08-01T06:44:30.100Z,22.60
2017-08-01T06:46:57.680Z,22.70
2017-08-01T06:49:25.264Z,22.80
2017-08-01T06:51:52.880Z,22.80
2017-08-01T06:54:21.237Z,23.00
2017-08-01T06:56:48.797Z,23.00
2017-08-01T06:59:16.415Z,23.00
2017-08-01T07:01:44.010Z,23.10
2017-08-01T07:04:11.603Z,23.10
2017-08-01T07:06:39.980Z,23.30
2017-08-01T07:09:07.540Z,23.30
2017-08-01T07:11:35.115Z,23.40
2017-08-01T07:14:03.502Z,23.60
2017-08-01T07:16:31.086Z,23.60
2017-08-01T07:18:58.685Z,23.60
2017-08-01T07:21:26.272Z,23.70
2017-08-01T07:23:53.853Z,23.80
2017-08-01T07:26:21.412Z,23.90
2017-08-01T07:28:49.784Z,24.10
2017-08-01T07:31:17.365Z,24.10
2017-08-01T07:33:44.956Z,24.20
2017-08-01T07:36:12.581Z,24.40
2017-08-01T07:38:40.154Z,24.50
2017-08-01T07:41:07.713Z,24.50
2017-08-01T07:43:35.330Z,24.60
2017-08-01T07:46:02.908Z,24.60
2017-08-01T07:48:30.501Z,24.50
2017-08-01T07:50:58.135Z,24.50
2017-08-01T07:53:25.709Z,24.50
2017-08-01T07:55:54.118Z,24.50
2017-08-01T07:58:21.775Z,24.50
2017-08-01T08:00:49.416Z,24.50
2017-08-01T08:03:17.057Z,24.40
2017-08-01T08:05:44.682Z,24.50
2017-08-01T08:08:12.265Z,24.50
2017-08-01T08:10:39.839Z,24.50
2017-08-01T08:13:07.435Z,24.50
2017-08-01T08:15:35.943Z,24.50
2017-08-01T08:18:03.534Z,24.50
2017-08-01T08:20:31.136Z,24.50
2017-08-01T08:22:59.493Z,24.60
2017-08-01T08:25:27.061Z,24.60
2017-08-01T08:27:54.675Z,24.70
2017-08-01T08:30:22.264Z,24.80
2017-08-01T08:32:49.849Z,24.80
2017-08-01T08:35:17.439Z,24.80
2017-08-01T08:37:45.783Z,24.90
2017-08-01T08:40:13.376Z,24.90
2017-08-01T08:42:40.974Z,24.90
2017-08-01T08:45:08.548Z,24.90
2017-08-01T08:47:36.126Z,24.70
2017-08-01T08:50:03.779Z,24.50
2017-08-01T08:52:31.349Z,24.40
2017-08-01T08:54:58.942Z,24.30
2017-08-01T08:57:27.324Z,24.00
2017-08-01T08:59:55.648Z,24.10
2017-08-01T09:02:23.246Z,24.10
2017-08-01T09:04:50.867Z,24.30
2017-08-01T09:07:18.453Z,24.30
2017-08-01T09:09:46.033Z,24.30
2017-08-01T09:12:13.662Z,24.40
2017-08-01T09:14:41.255Z,24.40
2017-08-01T09:17:08.817Z,24.40
2017-08-01T09:19:36.403Z,24.50
2017-08-01T09:22:03.998Z,24.60
2017-08-01T09:24:31.580Z,24.60
2017-08-01T09:26:59.214Z,24.60
2017-08-01T09:29:26.795Z,24.50
2017-08-01T09:31:54.377Z,24.50
2017-08-01T09:34:21.980Z,24.50
2017-08-01T09:36:50.341Z,24.60
2017-08-01T09:39:17.915Z,24.60
2017-08-01T09:41:45.513Z,24.70
2017-08-01T09:44:13.087Z,24.70
2017-08-01T09:46:40.655Z,24.80
2017-08-01T09:49:08.260Z,24.80
2017-08-01T09:51:35.856Z,24.90
2017-08-01T09:54:03.416Z,24.90
2017-08-01T09:56:31.900Z,24.80
2017-08-01T09:58:59.493Z,24.70
2017-08-01T10:01:27.064Z,24.70
2017-08-01T10:03:54.669Z,24.70
2017-08-01T10:06:23.021Z,24.70
2017-08-01T10:08:50.580Z,24.60
2017-08-01T10:11:18.171Z,24.70
2017-08-01T10:16:20.558Z,25.30
2017-08-01T10:18:48.118Z,25.30
2017-08-01T10:21:15.705Z,25.30
2017-08-01T10:23:44.061Z,25.50
2017-08-01T10:26:11.634Z,25.50
2017-08-01T10:28:39.971Z,26.00
2017-08-01T10:31:07.577Z,25.90
2017-08-01T10:33:35.153Z,25.80
2017-08-01T10:36:03.509Z,25.60
2017-08-01T10:38:31.118Z,25.60
2017-08-01T10:40:58.696Z,25.60
2017-08-01T10:43:26.288Z,25.70
2017-08-01T10:45:53.889Z,25.60
2017-08-01T10:48:22.234Z,25.90
2017-08-01T10:50:49.801Z,25.90
2017-08-01T10:53:17.406Z,26.20
2017-08-01T10:55:44.984Z,26.40
2017-08-01T10:58:12.601Z,26.70
2017-08-01T11:00:40.205Z,26.90
2017-08-01T11:03:07.882Z,27.00
2017-08-01T11:05:35.563Z,26.80
2017-08-01T11:08:03.205Z,26.60
2017-08-01T11:10:30.842Z,26.40
2017-08-01T11:12:58.509Z,26.20
2017-08-01T11:15:26.154Z,26.10
2017-08-01T11:17:54.529Z,26.00
2017-08-01T11:20:22.896Z,25.80
2017-08-01T11:22:50.494Z,25.70
2017-08-01T11:25:18.071Z,25.50
2017-08-01T11:27:45.648Z,25.40
2017-08-01T11:30:13.330Z,25.20
2017-08-01T11:32:40.916Z,25.10
2017-08-01T11:35:08.519Z,24.80
2017-08-01T11:37:36.126Z,24.70
2017-08-01T11:40:03.708Z,24.70
2017-08-01T11:42:31.279Z,24.80
2017-08-01T11:44:59.661Z,25.00
2017-08-01T11:47:28.008Z,25.10
2017-08-01T11:49:55.597Z,25.10
2017-08-01T11:52:23.967Z,25.30
2017-08-01T11:54:51.562Z,25.30
2017-08-01T11:57:19.161Z,25.30
2017-08-01T11:59:46.804Z,25.30
2017-08-01T12:02:14.384Z,25.30
2017-08-01T12:04:41.970Z,25.20
2017-08-01T12:07:09.557Z,25.20
2017-08-01T12:09:37.139Z,25.30
2017-08-01T12:12:04.744Z,25.40
2017-08-01T12:14:32.362Z,25.40
2017-08-01T12:16:59.947Z,25.40
2017-08-01T12:19:27.578Z,25.40
2017-08-01T12:21:55.952Z,25.30
2017-08-01T12:24:24.302Z,25.40
2017-08-01T12:26:51.895Z,25.40
2017-08-01T12:29:20.258Z,25.40
2017-08-01T12:31:47.845Z,25.40
2017-08-01T12:34:16.173Z,25.00
2017-08-01T12:36:43.753Z,25.00
2017-08-01T12:39:11.328Z,24.80
2017-08-01T12:41:38.904Z,24.60
2017-08-01T12:44:07.291Z,24.60
2017-08-01T12:46:35.636Z,24.60
2017-08-01T12:49:03.214Z,24.60
2017-08-01T12:51:30.842Z,24.60
2017-08-01T12:53:58.429Z,24.60
2017-08-01T12:56:26.017Z,24.40
2017-08-01T12:58:54.408Z,24.20
2017-08-01T13:01:22.769Z,24.10
2017-08-01T13:03:50.339Z,24.10
2017-08-01T13:06:18.711Z,23.70
2017-08-01T13:08:46.283Z,23.70
2017-08-01T13:11:14.619Z,23.80
2017-08-01T13:13:42.237Z,23.70
2017-08-01T13:16:10.600Z,23.80
2017-08-01T13:18:38.224Z,23.80
2017-08-01T13:21:05.830Z,23.80
2017-08-01T13:23:33.407Z,23.80
2017-08-01T13:26:01.742Z,23.60
2017-08-01T13:28:29.362Z,23.50
2017-08-01T13:30:56.936Z,23.60
2017-08-01T13:33:24.494Z,23.70
2017-08-01T13:35:52.082Z,23.70
2017-08-01T13:38:19.660Z,23.80
2017-08-01T13:40:47.239Z,24.00
2017-08-01T13:43:14.834Z,24.10
2017-08-01T13:45:42.427Z,24.10
2017-08-01T13:48:10.015Z,24.30
2017-08-01T13:50:37.619Z,24.50
2017-08-01T13:53:05.199Z,24.80
2017-08-01T13:55:32.786Z,25.00
2017-08-01T13:58:00.413Z,25.00
2017-08-01T14:00:27.973Z,25.20
2017-08-01T14:02:55.544Z,25.30
2017-08-01T14:05:23.171Z,25.30
2017-08-01T14:07:50.766Z,25.40
2017-08-01T14:10:18.329Z,25.40
2017-08-01T14:12:45.920Z,25.40
2017-08-01T14:15:13.485Z,25.40
2017-08-01T14:17:41.060Z,25.30
2017-08-01T14:20:08.681Z,25.30
2017-08-01T14:22:36.269Z,25.20
2017-08-01T14:25:03.857Z,25.30
2017-08-01T14:27:31.463Z,25.40
2017-08-01T14:29:59.157Z,25.40
2017-08-01T14:32:26.736Z,25.50
2017-08-01T14:34:54.337Z,25.50
2017-08-01T14:37:22.764Z,25.50
2017-08-01T14:39:50.338Z,25.50
2017-08-01T14:42:17.966Z,25.50
2017-08-01T14:44:45.516Z,25.60
2017-08-01T14:47:13.095Z,25.50
2017-08-01T14:49:40.685Z,25.60
2017-08-01T14:52:08.255Z,25.60
2017-08-01T14:54:35.847Z,25.50
2017-08-01T14:57:04.223Z,25.40
2017-08-01T14:59:31.791Z,25.40
2017-08-01T15:02:00.139Z,25.10
2017-08-01T15:04:27.746Z,25.10
2017-08-01T15:06:55.309Z,25.00
2017-08-01T15:09:23.650Z,24.70
2017-08-01T15:11:51.274Z,24.70
2017-08-01T15:14:18.851Z,24.50
2017-08-01T15:16:46.452Z,24.30
2017-08-01T15:19:14.055Z,24.00
2017-08-01T15:21:41.618Z,23.80
2017-08-01T15:24:09.204Z,23.90
2017-08-01T15:26:36.839Z,24.00
2017-08-01T15:29:04.440Z,24.10
2017-08-01T15:31:32.050Z,24.10
2017-08-01T15:34:00.454Z,24.10
2017-08-01T15:36:28.147Z,24.10
2017-08-01T15:38:55.711Z,24.10
2017-08-01T15:41:23.325Z,24.00
2017-08-01T15:43:51.690Z,24.00
2017-08-01T15:46:20.063Z,23.90
2017-08-01T15:48:47.677Z,23.90
2017-08-01T15:51:15.253Z,23.70
2017-08-01T15:53:42.842Z,23.70
2017-08-01T15:56:10.447Z,23.70
2017-08-01T15:58:38.052Z,23.60
2017-08-01T16:01:05.620Z,23.60
2017-08-01T16:03:33.247Z,23.70
2017-08-01T16:06:00.827Z,23.70
2017-08-01T16:08:28.444Z,23.70
2017-08-01T16:10:56.833Z,23.40
2017-08-01T16:13:24.411Z,23.40
2017-08-01T16:15:51.983Z,23.30
2017-08-01T16:18:19.578Z,23.30
2017-08-01T16:20:47.173Z,23.20
2017-08-01T16:23:15.524Z,23.00
2017-08-01T16:25:43.135Z,23.00
2017-08-01T16:28:10.734Z,22.90
2017-08-01T16:30:38.330Z,22.70
2017-08-01T16:33:05.928Z,22.50
2017-08-01T16:35:33.517Z,22.40
2017-08-01T16:38:01.097Z,22.30
2017-08-01T16:40:28.704Z,22.30
2017-08-01T16:42:56.265Z,22.20
2017-08-01T16:45:23.858Z,22.10
2017-08-01T16:47:51.481Z,22.10
2017-08-01T16:50:19.808Z,22.10
2017-08-01T16:52:47.372Z,22.10
2017-08-01T16:55:14.983Z,22.10
2017-08-01T16:57:43.378Z,22.00
2017-08-01T17:00:10.983Z,22.00
2017-08-01T17:02:38.605Z,21.80
2017-08-01T17:05:06.201Z,21.70
2017-08-01T17:07:33.784Z,21.60
2017-08-01T17:10:01.380Z,21.50
2017-08-01T17:12:29.730Z,21.10
2017-08-01T17:14:57.293Z,21.00
2017-08-01T17:17:24.908Z,20.90
2017-08-01T17:19:52.487Z,20.80
2017-08-01T17:22:20.060Z,20.60
2017-08-01T17:24:47.664Z,20.80
2017-08-01T17:27:16.032Z,20.90
2017-08-01T17:29:43.614Z,20.90
2017-08-01T17:32:11.983Z,20.70
2017-08-01T17:34:39.572Z,20.70
2017-08-01T17:37:07.163Z,20.70
2017-08-01T17:39:34.764Z,20.70
2017-08-01T17:42:02.328Z,20.70
2017-08-01T17:44:29.889Z,20.70
2017-08-01T17:46:57.481Z,20.60
2017-08-01T17:49:25.064Z,20.60
2017-08-01T17:51:52.644Z,20.70
2017-08-01T17:54:20.252Z,20.70
2017-08-01T17:56:48.616Z,20.80
2017-08-01T17:59:16.196Z,20.80
2017-08-01T18:01:44.571Z,20.90
2017-08-01T18:04:12.978Z,20.90
2017-08-01T18:06:40.568Z,20.90
2017-08-01T18:09:08.166Z,20.80
2017-08-01T18:11:35.747Z,20.70
2017-08-01T18:14:04.103Z,20.40
2017-08-01T18:16:31.723Z,20.30
2017-08-01T18:18:59.300Z,20.30
2017-08-01T18:21:26.884Z,20.40
2017-08-01T18:23:54.511Z,20.50
2017-08-01T18:26:22.098Z,20.60
2017-08-01T18:28:49.676Z,20.60
2017-08-01T18:31:17.298Z,20.70
2017-08-01T18:33:44.886Z,20.60
2017-08-01T18:36:12.463Z,20.60
2017-08-01T18:38:40.100Z,20.50
2017-08-01T18:41:07.671Z,20.50
2017-08-01T18:43:35.270Z,20.40
2017-08-01T18:46:03.656Z,20.40
2017-08-01T18:48:32.003Z,20.30
2017-08-01T18:50:59.601Z,20.30
2017-08-01T18:53:27.965Z,20.30
2017-08-01T18:55:55.539Z,20.30
2017-08-01T18:58:23.911Z,20.40
2017-08-01T19:00:51.528Z,20.30
2017-08-01T19:03:19.103Z,20.30
2017-08-01T19:05:46.661Z,20.20
2017-08-01T19:08:14.265Z,20.20
2017-08-01T19:10:41.827Z,20.20
2017-08-01T19:13:09.405Z,20.20
2017-08-01T19:15:37.779Z,20.20
2017-08-01T19:18:06.127Z,20.10
2017-08-01T19:20:33.686Z,20.10
2017-08-01T19:23:01.306Z,20.20
2017-08-01T19:25:28.906Z,20.20
2017-08-01T19:27:56.483Z,20.20
2017-08-01T19:30:24.117Z,20.20
2017-08-01T19:32:51.689Z,20.20
2017-08-01T19:35:19.259Z,20.10
2017-08-01T19:37:46.869Z,20.10
2017-08-01T19:40:15.217Z,20.10
2017-08-01T19:42:42.799Z,20.00
2017-08-01T19:45:11.169Z,19.90
2017-08-01T19:47:39.694Z,19.90
2017-08-01T19:50:07.285Z,19.60
2017-08-01T19:52:34.900Z,19.50
2017-08-01T19:55:03.236Z,19.50
2017-08-01T19:57:30.793Z,19.40
2017-08-01T19:59:58.401Z,19.50
2017-08-01T20:02:26.785Z,19.50
2017-08-01T20:04:55.136Z,19.60
2017-08-01T20:07:22.756Z,19.50
2017-08-01T20:09:50.335Z,19.50
2017-08-01T20:12:17.920Z,19.50
2017-08-01T20:14:45.546Z,19.50
2017-08-01T20:17:13.108Z,19.50
2017-08-01T20:19:40.697Z,19.50
2017-08-01T20:22:08.312Z,19.50
2017-08-01T20:24:35.896Z,19.50
2017-08-01T20:27:03.450Z,19.50
2017-08-01T20:29:31.081Z,19.50
2017-08-01T20:31:59.428Z,19.50
2017-08-01T20:34:27.022Z,19.40
2017-08-01T20:36:54.648Z,19.50
2017-08-01T20:39:22.225Z,19.40
2017-08-01T20:41:49.798Z,19.30
2017-08-01T20:44:17.408Z,19.20
2017-08-01T20:46:45.011Z,19.20
2017-08-01T20:49:12.602Z,19.10
2017-08-01T20:51:40.981Z,18.90
2017-08-01T20:54:08.570Z,18.90
2017-08-01T20:56:36.174Z,18.90
2017-08-01T20:59:03.785Z,18.90
2017-08-01T21:01:33.029Z,18.80
2017-08-01T21:04:00.613Z,18.70
2017-08-01T21:06:28.223Z,18.60
2017-08-01T21:08:55.878Z,18.60
2017-08-01T21:11:23.537Z,18.50
2017-08-01T21:13:51.154Z,18.50
2017-08-01T21:16:18.745Z,18.40
2017-08-01T21:18:46.304Z,18.30
2017-08-01T21:21:13.922Z,18.30
2017-08-01T21:23:41.491Z,18.30
2017-08-01T21:26:09.053Z,18.30
2017-08-01T21:28:36.668Z,18.30
2017-08-01T21:31:04.236Z,18.20
2017-08-01T21:33:32.583Z,18.10
2017-08-01T21:36:00.184Z,18.10
2017-08-01T21:38:28.528Z,18.10
2017-08-01T21:40:56.105Z,18.00
2017-08-01T21:43:23.704Z,18.00
2017-08-01T21:45:51.281Z,17.90
2017-08-01T21:48:18.858Z,17.90
2017-08-01T21:50:46.453Z,17.90
2017-08-01T21:53:14.067Z,17.80
2017-08-01T21:55:41.704Z,17.80
2017-08-01T21:58:09.312Z,17.90
2017-08-01T22:00:36.886Z,17.80
2017-08-01T22:03:04.477Z,17.80
2017-08-01T22:05:32.866Z,17.80
2017-08-01T22:08:01.230Z,17.80
2017-08-01T22:10:28.821Z,17.70
2017-08-01T22:12:56.447Z,17.80
2017-08-01T22:15:24.043Z,17.70
2017-08-01T22:17:51.649Z,17.60
2017-08-01T22:20:19.282Z,17.50
2017-08-01T22:22:46.876Z,17.50
2017-08-01T22:25:14.475Z,17.50
2017-08-01T22:27:42.870Z,17.40
2017-08-01T22:30:11.230Z,17.40
2017-08-01T22:32:38.826Z,17.40
2017-08-01T22:35:06.450Z,17.30
2017-08-01T22:37:34.057Z,17.30
2017-08-01T22:40:01.672Z,17.30
2017-08-01T22:42:29.304Z,17.30
2017-08-01T22:44:56.893Z,17.30
2017-08-01T22:47:24.481Z,17.30
2017-08-01T22:49:52.873Z,17.30
2017-08-01T22:52:21.234Z,17.20
2017-08-01T22:54:48.827Z,17.20
2017-08-01T22:57:16.449Z,17.20
2017-08-01T22:59:44.044Z,17.20
2017-08-01T23:02:11.637Z,17.20
2017-08-01T23:04:39.261Z,17.20
2017-08-01T23:07:06.854Z,17.20
2017-08-01T23:09:34.445Z,17.20
2017-08-01T23:12:02.067Z,17.20
2017-08-01T23:14:29.661Z,17.20
2017-08-01T23:16:57.253Z,17.10
2017-08-01T23:19:24.883Z,17.00
2017-08-01T23:21:52.478Z,17.00
2017-08-01T23:24:20.074Z,17.00
2017-08-01T23:26:47.703Z,17.00
2017-08-01T23:29:15.294Z,17.00
2017-08-01T23:31:43.664Z,17.00
2017-08-01T23:34:12.057Z,17.00
2017-08-01T23:36:40.413Z,17.10
2017-08-01T23:39:08.013Z,17.10
2017-08-01T23:41:35.638Z,17.10
2017-08-01T23:44:03.274Z,17.10
2017-08-01T23:46:30.869Z,17.10
2017-08-01T23:48:58.490Z,17.20
2017-08-01T23:51:26.100Z,17.10
2017-08-01T23:53:53.699Z,17.10
2017-08-01T23:56:21.345Z,17.00
2017-08-01T23:58:49.702Z,17.00
